VEAT/IXA METAR and TAF weather

Enter ICAO airport designator
Station Type Date Time Source
VEAT METAR 2021/02/27 04:00 UTC NOAA

VEAT 270400Z 20004KT 2500 HZ NSC 29/22 Q1010 BECMG 3000 HZ


Station Type Date Time Source
VEAT Decoded METAR 2021/02/27 04:00 UTC NOAA

Agartala, India (VEAT) 23-53N 091-15E 16M
Feb 26, 2021 - 11:00 PM EST / 2021.02.27 0400 UTC
Wind: from the SSW (200 degrees) at 5 MPH (4 KT):0
Visibility: 1 mile(s):0
Weather: haze
Temperature: 84 F (29 C)
Dew Point: 71 F (22 C)
Relative Humidity: 65%
Pressure (altimeter): 29.83 in. Hg (1010 hPa)
ob: VEAT 270400Z 20004KT 2500 HZ NSC 29/22 Q1010 BECMG 3000 HZ
cycle: 4

Station Type Date Time Source
VEAT TAF 2013/07/19 12:00 UTC NOAA

TAF VEAT 190900Z 1912/1921 16008KT 5000 HZ SCT018 FEW030CB BKN100
TEMPO 1912/1921 3000 -TSRA SCT015 FEW025CB OVC090

Example: see airport list